sensor_id;sensor_type;location;lat;lon;timestamp;P1;durP1;ratioP1;P2;durP2;ratioP2
7887;SDS011;3989;48.810;9.208;2022-12-04T00:00:42;16.13;;;11.40;;
7887;SDS011;3989;48.810;9.208;2022-12-04T00:03:11;15.77;;;10.53;;
7887;SDS011;3989;48.810;9.208;2022-12-04T00:05:37;17.10;;;10.80;;
7887;SDS011;3989;48.810;9.208;2022-12-04T00:08:04;14.57;;;10.67;;
7887;SDS011;3989;48.810;9.208;2022-12-04T00:10:30;17.57;;;11.57;;
7887;SDS011;3989;48.810;9.208;2022-12-04T00:12:57;16.50;;;11.17;;
7887;SDS011;3989;48.810;9.208;2022-12-04T00:15:23;15.83;;;10.97;;
7887;SDS011;3989;48.810;9.208;2022-12-04T00:17:50;15.67;;;10.40;;
7887;SDS011;3989;48.810;9.208;2022-12-04T00:20:18;16.87;;;11.57;;
7887;SDS011;3989;48.810;9.208;2022-12-04T00:22:45;17.93;;;11.00;;
7887;SDS011;3989;48.810;9.208;2022-12-04T00:25:11;13.50;;;9.50;;
7887;SDS011;3989;48.810;9.208;2022-12-04T00:27:38;17.80;;;11.00;;
7887;SDS011;3989;48.810;9.208;2022-12-04T00:30:05;17.10;;;10.97;;
7887;SDS011;3989;48.810;9.208;2022-12-04T00:32:32;14.90;;;10.73;;
7887;SDS011;3989;48.810;9.208;2022-12-04T00:34:59;19.27;;;11.50;;
7887;SDS011;3989;48.810;9.208;2022-12-04T00:37:27;18.03;;;10.23;;
7887;SDS011;3989;48.810;9.208;2022-12-04T00:39:53;13.90;;;9.60;;
7887;SDS011;3989;48.810;9.208;2022-12-04T00:42:20;17.93;;;10.23;;
7887;SDS011;3989;48.810;9.208;2022-12-04T00:44:46;16.40;;;10.23;;
7887;SDS011;3989;48.810;9.208;2022-12-04T00:47:13;15.50;;;9.63;;
7887;SDS011;3989;48.810;9.208;2022-12-04T00:49:39;15.37;;;11.07;;
7887;SDS011;3989;48.810;9.208;2022-12-04T00:52:06;17.07;;;10.90;;
7887;SDS011;3989;48.810;9.208;2022-12-04T00:54:34;15.20;;;10.20;;
7887;SDS011;3989;48.810;9.208;2022-12-04T00:57:00;15.63;;;10.73;;
7887;SDS011;3989;48.810;9.208;2022-12-04T00:59:27;18.23;;;10.20;;
7887;SDS011;3989;48.810;9.208;2022-12-04T01:01:53;17.47;;;11.03;;
7887;SDS011;3989;48.810;9.208;2022-12-04T01:04:20;16.47;;;11.13;;
7887;SDS011;3989;48.810;9.208;2022-12-04T01:06:47;15.87;;;10.57;;
7887;SDS011;3989;48.810;9.208;2022-12-04T01:09:13;15.53;;;9.53;;
7887;SDS011;3989;48.810;9.208;2022-12-04T01:11:41;15.37;;;10.47;;
7887;SDS011;3989;48.810;9.208;2022-12-04T01:14:08;15.50;;;10.17;;
7887;SDS011;3989;48.810;9.208;2022-12-04T01:16:35;16.87;;;12.07;;
7887;SDS011;3989;48.810;9.208;2022-12-04T01:19:03;14.60;;;9.90;;
7887;SDS011;3989;48.810;9.208;2022-12-04T01:21:31;18.47;;;11.63;;
7887;SDS011;3989;48.810;9.208;2022-12-04T01:23:57;17.30;;;10.43;;
7887;SDS011;3989;48.810;9.208;2022-12-04T01:26:24;17.33;;;10.30;;
7887;SDS011;3989;48.810;9.208;2022-12-04T01:28:52;16.30;;;10.63;;
7887;SDS011;3989;48.810;9.208;2022-12-04T01:31:19;16.63;;;11.13;;
7887;SDS011;3989;48.810;9.208;2022-12-04T01:33:46;18.57;;;10.70;;
7887;SDS011;3989;48.810;9.208;2022-12-04T01:36:14;16.67;;;10.70;;
7887;SDS011;3989;48.810;9.208;2022-12-04T01:38:53;16.70;;;10.63;;
7887;SDS011;3989;48.810;9.208;2022-12-04T01:41:21;17.93;;;10.33;;
7887;SDS011;3989;48.810;9.208;2022-12-04T01:44:06;15.77;;;10.73;;
7887;SDS011;3989;48.810;9.208;2022-12-04T01:46:38;15.80;;;10.30;;
7887;SDS011;3989;48.810;9.208;2022-12-04T01:49:05;15.73;;;10.87;;
7887;SDS011;3989;48.810;9.208;2022-12-04T01:51:33;15.70;;;10.23;;
7887;SDS011;3989;48.810;9.208;2022-12-04T01:54:03;19.83;;;11.07;;
7887;SDS011;3989;48.810;9.208;2022-12-04T01:56:33;16.37;;;10.67;;
7887;SDS011;3989;48.810;9.208;2022-12-04T01:59:03;16.77;;;10.67;;
7887;SDS011;3989;48.810;9.208;2022-12-04T02:01:35;17.70;;;10.50;;
7887;SDS011;3989;48.810;9.208;2022-12-04T02:04:07;16.63;;;11.03;;
7887;SDS011;3989;48.810;9.208;2022-12-04T02:06:34;20.00;;;11.83;;
7887;SDS011;3989;48.810;9.208;2022-12-04T02:09:00;15.33;;;11.00;;
7887;SDS011;3989;48.810;9.208;2022-12-04T02:11:29;17.20;;;10.43;;
7887;SDS011;3989;48.810;9.208;2022-12-04T02:14:09;14.93;;;10.60;;
7887;SDS011;3989;48.810;9.208;2022-12-04T02:16:46;17.67;;;11.37;;
7887;SDS011;3989;48.810;9.208;2022-12-04T02:22:18;17.80;;;11.43;;
7887;SDS011;3989;48.810;9.208;2022-12-04T02:24:56;16.77;;;11.17;;
7887;SDS011;3989;48.810;9.208;2022-12-04T02:30:30;17.63;;;11.90;;
7887;SDS011;3989;48.810;9.208;2022-12-04T02:33:01;18.17;;;11.60;;
7887;SDS011;3989;48.810;9.208;2022-12-04T02:35:32;16.10;;;11.30;;
7887;SDS011;3989;48.810;9.208;2022-12-04T02:38:04;17.60;;;12.20;;
7887;SDS011;3989;48.810;9.208;2022-12-04T02:40:44;15.60;;;10.73;;
7887;SDS011;3989;48.810;9.208;2022-12-04T02:43:18;20.53;;;11.83;;
7887;SDS011;3989;48.810;9.208;2022-12-04T02:45:52;15.60;;;11.30;;
7887;SDS011;3989;48.810;9.208;2022-12-04T02:48:24;18.87;;;12.40;;
7887;SDS011;3989;48.810;9.208;2022-12-04T02:50:53;17.07;;;11.30;;
7887;SDS011;3989;48.810;9.208;2022-12-04T02:53:25;15.83;;;11.27;;
7887;SDS011;3989;48.810;9.208;2022-12-04T02:55:58;15.97;;;11.87;;
7887;SDS011;3989;48.810;9.208;2022-12-04T02:58:29;16.93;;;11.50;;
7887;SDS011;3989;48.810;9.208;2022-12-04T03:01:00;18.70;;;11.93;;
7887;SDS011;3989;48.810;9.208;2022-12-04T03:03:42;16.30;;;11.40;;
7887;SDS011;3989;48.810;9.208;2022-12-04T03:06:12;17.80;;;12.03;;
7887;SDS011;3989;48.810;9.208;2022-12-04T03:08:41;18.77;;;12.67;;
7887;SDS011;3989;48.810;9.208;2022-12-04T03:11:12;15.73;;;11.53;;
7887;SDS011;3989;48.810;9.208;2022-12-04T03:13:40;17.30;;;11.57;;
7887;SDS011;3989;48.810;9.208;2022-12-04T03:16:13;15.63;;;11.83;;
7887;SDS011;3989;48.810;9.208;2022-12-04T03:18:44;15.13;;;12.23;;
7887;SDS011;3989;48.810;9.208;2022-12-04T03:21:16;17.23;;;12.50;;
7887;SDS011;3989;48.810;9.208;2022-12-04T03:23:46;17.73;;;12.40;;
7887;SDS011;3989;48.810;9.208;2022-12-04T03:26:19;18.80;;;12.23;;
7887;SDS011;3989;48.810;9.208;2022-12-04T03:28:51;17.43;;;11.80;;
7887;SDS011;3989;48.810;9.208;2022-12-04T03:31:23;16.77;;;11.97;;
7887;SDS011;3989;48.810;9.208;2022-12-04T03:33:57;19.23;;;11.60;;
7887;SDS011;3989;48.810;9.208;2022-12-04T03:36:30;18.23;;;12.30;;
7887;SDS011;3989;48.810;9.208;2022-12-04T03:39:01;17.47;;;12.60;;
7887;SDS011;3989;48.810;9.208;2022-12-04T03:41:35;17.87;;;12.43;;
7887;SDS011;3989;48.810;9.208;2022-12-04T03:44:13;18.20;;;13.37;;
7887;SDS011;3989;48.810;9.208;2022-12-04T03:46:47;16.53;;;12.50;;
7887;SDS011;3989;48.810;9.208;2022-12-04T03:49:18;18.67;;;13.33;;
7887;SDS011;3989;48.810;9.208;2022-12-04T03:51:50;18.67;;;12.80;;
7887;SDS011;3989;48.810;9.208;2022-12-04T03:54:23;21.87;;;13.40;;
7887;SDS011;3989;48.810;9.208;2022-12-04T03:56:54;20.37;;;12.83;;
7887;SDS011;3989;48.810;9.208;2022-12-04T03:59:25;20.00;;;13.63;;
7887;SDS011;3989;48.810;9.208;2022-12-04T04:01:56;19.93;;;12.30;;
7887;SDS011;3989;48.810;9.208;2022-12-04T04:04:26;16.53;;;12.57;;
7887;SDS011;3989;48.810;9.208;2022-12-04T04:06:56;17.40;;;11.73;;
7887;SDS011;3989;48.810;9.208;2022-12-04T04:09:27;15.37;;;11.60;;
7887;SDS011;3989;48.810;9.208;2022-12-04T04:12:01;17.67;;;11.93;;
7887;SDS011;3989;48.810;9.208;2022-12-04T04:14:31;16.00;;;11.47;;
7887;SDS011;3989;48.810;9.208;2022-12-04T04:17:22;18.70;;;12.40;;
7887;SDS011;3989;48.810;9.208;2022-12-04T04:20:29;18.57;;;11.60;;
7887;SDS011;3989;48.810;9.208;2022-12-04T04:23:19;18.90;;;12.93;;
7887;SDS011;3989;48.810;9.208;2022-12-04T04:26:05;18.33;;;12.50;;
7887;SDS011;3989;48.810;9.208;2022-12-04T04:28:34;18.70;;;12.03;;
7887;SDS011;3989;48.810;9.208;2022-12-04T04:31:04;17.50;;;11.80;;
7887;SDS011;3989;48.810;9.208;2022-12-04T04:33:39;16.87;;;11.80;;
7887;SDS011;3989;48.810;9.208;2022-12-04T04:36:14;17.13;;;11.60;;
7887;SDS011;3989;48.810;9.208;2022-12-04T04:38:49;16.13;;;11.60;;
7887;SDS011;3989;48.810;9.208;2022-12-04T04:41:25;19.13;;;13.00;;
7887;SDS011;3989;48.810;9.208;2022-12-04T04:43:58;17.87;;;13.83;;
7887;SDS011;3989;48.810;9.208;2022-12-04T04:46:35;19.50;;;13.10;;
7887;SDS011;3989;48.810;9.208;2022-12-04T04:49:07;18.23;;;13.03;;
7887;SDS011;3989;48.810;9.208;2022-12-04T04:51:37;17.10;;;11.67;;
7887;SDS011;3989;48.810;9.208;2022-12-04T04:54:05;17.07;;;11.23;;
7887;SDS011;3989;48.810;9.208;2022-12-04T04:56:38;17.37;;;12.20;;
7887;SDS011;3989;48.810;9.208;2022-12-04T04:59:05;17.43;;;12.37;;
7887;SDS011;3989;48.810;9.208;2022-12-04T05:01:32;17.37;;;13.13;;
7887;SDS011;3989;48.810;9.208;2022-12-04T05:03:58;16.23;;;11.47;;
7887;SDS011;3989;48.810;9.208;2022-12-04T05:06:27;17.90;;;11.80;;
7887;SDS011;3989;48.810;9.208;2022-12-04T05:08:53;17.37;;;12.20;;
7887;SDS011;3989;48.810;9.208;2022-12-04T05:11:20;15.27;;;11.67;;
7887;SDS011;3989;48.810;9.208;2022-12-04T05:13:47;17.30;;;11.73;;
7887;SDS011;3989;48.810;9.208;2022-12-04T05:16:14;19.80;;;13.00;;
7887;SDS011;3989;48.810;9.208;2022-12-04T05:18:41;17.13;;;11.60;;
7887;SDS011;3989;48.810;9.208;2022-12-04T05:21:30;17.57;;;11.60;;
7887;SDS011;3989;48.810;9.208;2022-12-04T05:23:56;16.43;;;11.93;;
7887;SDS011;3989;48.810;9.208;2022-12-04T05:26:22;20.03;;;12.30;;
7887;SDS011;3989;48.810;9.208;2022-12-04T05:28:49;18.47;;;12.83;;
7887;SDS011;3989;48.810;9.208;2022-12-04T05:31:16;15.63;;;11.00;;
7887;SDS011;3989;48.810;9.208;2022-12-04T05:33:43;20.80;;;13.90;;
7887;SDS011;3989;48.810;9.208;2022-12-04T05:36:09;15.07;;;11.10;;
7887;SDS011;3989;48.810;9.208;2022-12-04T05:38:39;17.90;;;12.00;;
7887;SDS011;3989;48.810;9.208;2022-12-04T05:41:06;17.73;;;12.13;;
7887;SDS011;3989;48.810;9.208;2022-12-04T05:43:33;16.83;;;11.60;;
7887;SDS011;3989;48.810;9.208;2022-12-04T05:46:00;19.57;;;12.17;;
7887;SDS011;3989;48.810;9.208;2022-12-04T05:48:27;17.57;;;11.43;;
7887;SDS011;3989;48.810;9.208;2022-12-04T05:50:53;14.33;;;11.00;;
7887;SDS011;3989;48.810;9.208;2022-12-04T05:53:20;16.47;;;11.63;;
7887;SDS011;3989;48.810;9.208;2022-12-04T05:55:53;16.50;;;11.13;;
7887;SDS011;3989;48.810;9.208;2022-12-04T05:58:20;18.07;;;10.90;;
7887;SDS011;3989;48.810;9.208;2022-12-04T06:00:47;17.90;;;11.47;;
7887;SDS011;3989;48.810;9.208;2022-12-04T06:03:13;16.37;;;11.07;;
7887;SDS011;3989;48.810;9.208;2022-12-04T06:05:40;14.40;;;9.80;;
7887;SDS011;3989;48.810;9.208;2022-12-04T06:08:07;16.60;;;10.13;;
7887;SDS011;3989;48.810;9.208;2022-12-04T06:10:33;13.63;;;9.83;;
7887;SDS011;3989;48.810;9.208;2022-12-04T06:13:01;18.60;;;11.60;;
7887;SDS011;3989;48.810;9.208;2022-12-04T06:15:29;15.83;;;11.40;;
7887;SDS011;3989;48.810;9.208;2022-12-04T06:17:56;17.30;;;11.17;;
7887;SDS011;3989;48.810;9.208;2022-12-04T06:20:22;15.23;;;10.83;;
7887;SDS011;3989;48.810;9.208;2022-12-04T06:22:49;17.87;;;11.53;;
7887;SDS011;3989;48.810;9.208;2022-12-04T06:25:15;17.40;;;11.93;;
7887;SDS011;3989;48.810;9.208;2022-12-04T06:27:42;15.10;;;10.97;;
7887;SDS011;3989;48.810;9.208;2022-12-04T06:30:10;19.07;;;11.60;;
7887;SDS011;3989;48.810;9.208;2022-12-04T06:32:37;16.00;;;10.70;;
7887;SDS011;3989;48.810;9.208;2022-12-04T06:35:04;15.53;;;10.47;;
7887;SDS011;3989;48.810;9.208;2022-12-04T06:37:32;16.77;;;10.27;;
7887;SDS011;3989;48.810;9.208;2022-12-04T06:39:59;18.03;;;11.37;;
7887;SDS011;3989;48.810;9.208;2022-12-04T06:42:25;15.97;;;10.83;;
7887;SDS011;3989;48.810;9.208;2022-12-04T06:44:52;15.73;;;10.47;;
7887;SDS011;3989;48.810;9.208;2022-12-04T06:47:20;14.97;;;10.37;;
7887;SDS011;3989;48.810;9.208;2022-12-04T06:49:48;15.50;;;10.70;;
7887;SDS011;3989;48.810;9.208;2022-12-04T06:52:15;16.20;;;10.53;;
7887;SDS011;3989;48.810;9.208;2022-12-04T06:54:41;19.77;;;12.00;;
7887;SDS011;3989;48.810;9.208;2022-12-04T06:57:08;15.20;;;10.53;;
7887;SDS011;3989;48.810;9.208;2022-12-04T06:59:35;14.80;;;10.23;;
7887;SDS011;3989;48.810;9.208;2022-12-04T07:02:01;17.30;;;11.27;;
7887;SDS011;3989;48.810;9.208;2022-12-04T07:04:29;17.17;;;11.23;;
7887;SDS011;3989;48.810;9.208;2022-12-04T07:06:56;14.37;;;10.23;;
7887;SDS011;3989;48.810;9.208;2022-12-04T07:09:22;16.07;;;11.03;;
7887;SDS011;3989;48.810;9.208;2022-12-04T07:11:49;17.77;;;11.97;;
7887;SDS011;3989;48.810;9.208;2022-12-04T07:14:17;15.20;;;10.37;;
7887;SDS011;3989;48.810;9.208;2022-12-04T07:16:43;18.87;;;11.33;;
7887;SDS011;3989;48.810;9.208;2022-12-04T07:19:11;15.27;;;10.67;;
7887;SDS011;3989;48.810;9.208;2022-12-04T07:21:40;16.63;;;11.23;;
7887;SDS011;3989;48.810;9.208;2022-12-04T07:24:08;19.20;;;11.57;;
7887;SDS011;3989;48.810;9.208;2022-12-04T07:26:40;17.93;;;10.77;;
7887;SDS011;3989;48.810;9.208;2022-12-04T07:29:06;20.20;;;12.50;;
7887;SDS011;3989;48.810;9.208;2022-12-04T07:31:34;17.43;;;11.67;;
7887;SDS011;3989;48.810;9.208;2022-12-04T07:34:01;19.20;;;10.93;;
7887;SDS011;3989;48.810;9.208;2022-12-04T07:36:27;18.10;;;10.93;;
7887;SDS011;3989;48.810;9.208;2022-12-04T07:38:55;18.57;;;12.60;;
7887;SDS011;3989;48.810;9.208;2022-12-04T07:41:22;15.33;;;11.03;;
7887;SDS011;3989;48.810;9.208;2022-12-04T07:43:49;15.50;;;9.50;;
7887;SDS011;3989;48.810;9.208;2022-12-04T07:46:16;13.87;;;10.37;;
7887;SDS011;3989;48.810;9.208;2022-12-04T07:48:44;15.10;;;10.33;;
7887;SDS011;3989;48.810;9.208;2022-12-04T07:51:12;14.83;;;10.60;;
7887;SDS011;3989;48.810;9.208;2022-12-04T07:53:40;14.70;;;10.63;;
7887;SDS011;3989;48.810;9.208;2022-12-04T07:56:09;16.17;;;10.50;;
7887;SDS011;3989;48.810;9.208;2022-12-04T07:58:37;17.33;;;11.33;;
7887;SDS011;3989;48.810;9.208;2022-12-04T08:01:04;14.77;;;9.87;;
7887;SDS011;3989;48.810;9.208;2022-12-04T08:03:32;17.70;;;11.27;;
7887;SDS011;3989;48.810;9.208;2022-12-04T08:06:00;16.83;;;11.20;;
7887;SDS011;3989;48.810;9.208;2022-12-04T08:08:27;14.10;;;10.17;;
7887;SDS011;3989;48.810;9.208;2022-12-04T08:10:54;15.70;;;11.47;;
7887;SDS011;3989;48.810;9.208;2022-12-04T08:13:22;17.37;;;11.77;;
7887;SDS011;3989;48.810;9.208;2022-12-04T08:15:48;14.67;;;10.63;;
7887;SDS011;3989;48.810;9.208;2022-12-04T08:18:15;21.13;;;11.73;;
7887;SDS011;3989;48.810;9.208;2022-12-04T08:20:42;15.27;;;11.10;;
7887;SDS011;3989;48.810;9.208;2022-12-04T08:23:09;15.47;;;11.37;;
7887;SDS011;3989;48.810;9.208;2022-12-04T08:25:36;16.53;;;9.63;;
7887;SDS011;3989;48.810;9.208;2022-12-04T08:28:04;15.83;;;11.10;;
7887;SDS011;3989;48.810;9.208;2022-12-04T08:30:32;14.67;;;11.07;;
7887;SDS011;3989;48.810;9.208;2022-12-04T08:32:59;14.40;;;9.83;;
7887;SDS011;3989;48.810;9.208;2022-12-04T08:35:25;14.13;;;10.13;;
7887;SDS011;3989;48.810;9.208;2022-12-04T08:37:52;14.30;;;10.30;;
7887;SDS011;3989;48.810;9.208;2022-12-04T08:40:18;13.50;;;9.87;;
7887;SDS011;3989;48.810;9.208;2022-12-04T08:42:45;15.63;;;11.10;;
7887;SDS011;3989;48.810;9.208;2022-12-04T08:45:12;12.07;;;9.33;;
7887;SDS011;3989;48.810;9.208;2022-12-04T08:47:40;12.50;;;9.53;;
7887;SDS011;3989;48.810;9.208;2022-12-04T08:50:07;15.70;;;10.60;;
7887;SDS011;3989;48.810;9.208;2022-12-04T08:52:34;16.37;;;11.20;;
7887;SDS011;3989;48.810;9.208;2022-12-04T08:55:00;17.27;;;11.40;;
7887;SDS011;3989;48.810;9.208;2022-12-04T08:57:27;16.20;;;11.27;;
7887;SDS011;3989;48.810;9.208;2022-12-04T08:59:54;16.43;;;11.83;;
7887;SDS011;3989;48.810;9.208;2022-12-04T09:02:20;16.83;;;11.70;;
7887;SDS011;3989;48.810;9.208;2022-12-04T09:04:48;16.80;;;11.53;;
7887;SDS011;3989;48.810;9.208;2022-12-04T09:07:15;15.57;;;11.10;;
7887;SDS011;3989;48.810;9.208;2022-12-04T09:09:42;14.57;;;11.07;;
7887;SDS011;3989;48.810;9.208;2022-12-04T09:12:08;17.70;;;11.13;;
7887;SDS011;3989;48.810;9.208;2022-12-04T09:14:35;17.13;;;10.03;;
7887;SDS011;3989;48.810;9.208;2022-12-04T09:17:03;15.83;;;11.47;;
7887;SDS011;3989;48.810;9.208;2022-12-04T09:19:29;14.03;;;10.07;;
7887;SDS011;3989;48.810;9.208;2022-12-04T09:21:57;15.70;;;10.63;;
7887;SDS011;3989;48.810;9.208;2022-12-04T09:24:24;16.33;;;10.47;;
7887;SDS011;3989;48.810;9.208;2022-12-04T09:26:50;14.23;;;11.20;;
7887;SDS011;3989;48.810;9.208;2022-12-04T09:29:17;17.50;;;11.17;;
7887;SDS011;3989;48.810;9.208;2022-12-04T09:31:44;16.43;;;12.07;;
7887;SDS011;3989;48.810;9.208;2022-12-04T09:34:10;14.73;;;11.30;;
7887;SDS011;3989;48.810;9.208;2022-12-04T09:36:37;15.97;;;10.13;;
7887;SDS011;3989;48.810;9.208;2022-12-04T09:39:05;20.00;;;11.77;;
7887;SDS011;3989;48.810;9.208;2022-12-04T09:41:37;16.50;;;11.80;;
7887;SDS011;3989;48.810;9.208;2022-12-04T09:44:20;15.37;;;10.83;;
7887;SDS011;3989;48.810;9.208;2022-12-04T09:46:50;16.53;;;10.77;;
7887;SDS011;3989;48.810;9.208;2022-12-04T09:49:19;16.73;;;11.13;;
7887;SDS011;3989;48.810;9.208;2022-12-04T09:51:49;19.17;;;12.07;;
7887;SDS011;3989;48.810;9.208;2022-12-04T09:54:19;15.07;;;11.30;;
7887;SDS011;3989;48.810;9.208;2022-12-04T09:56:52;14.10;;;10.33;;
7887;SDS011;3989;48.810;9.208;2022-12-04T09:59:25;17.80;;;11.10;;
7887;SDS011;3989;48.810;9.208;2022-12-04T10:01:55;17.30;;;11.90;;
7887;SDS011;3989;48.810;9.208;2022-12-04T10:04:25;15.70;;;11.17;;
7887;SDS011;3989;48.810;9.208;2022-12-04T10:06:53;19.37;;;12.93;;
7887;SDS011;3989;48.810;9.208;2022-12-04T10:09:29;16.30;;;11.13;;
7887;SDS011;3989;48.810;9.208;2022-12-04T10:12:04;17.40;;;12.00;;
7887;SDS011;3989;48.810;9.208;2022-12-04T10:17:41;17.60;;;12.17;;
7887;SDS011;3989;48.810;9.208;2022-12-04T10:20:20;19.10;;;12.00;;
7887;SDS011;3989;48.810;9.208;2022-12-04T10:22:59;16.80;;;11.43;;
7887;SDS011;3989;48.810;9.208;2022-12-04T10:25:34;16.27;;;11.37;;
7887;SDS011;3989;48.810;9.208;2022-12-04T10:28:07;16.77;;;11.70;;
7887;SDS011;3989;48.810;9.208;2022-12-04T10:30:41;15.17;;;11.97;;
7887;SDS011;3989;48.810;9.208;2022-12-04T10:33:12;18.23;;;12.03;;
7887;SDS011;3989;48.810;9.208;2022-12-04T10:35:42;18.83;;;11.37;;
7887;SDS011;3989;48.810;9.208;2022-12-04T10:38:22;17.17;;;12.00;;
7887;SDS011;3989;48.810;9.208;2022-12-04T10:40:56;18.03;;;11.33;;
7887;SDS011;3989;48.810;9.208;2022-12-04T10:43:28;16.90;;;10.30;;
7887;SDS011;3989;48.810;9.208;2022-12-04T10:45:59;17.10;;;11.67;;
7887;SDS011;3989;48.810;9.208;2022-12-04T10:48:27;21.97;;;14.20;;
7887;SDS011;3989;48.810;9.208;2022-12-04T10:51:00;16.40;;;11.10;;
7887;SDS011;3989;48.810;9.208;2022-12-04T10:53:28;18.67;;;12.40;;
7887;SDS011;3989;48.810;9.208;2022-12-04T10:56:07;19.03;;;12.23;;
7887;SDS011;3989;48.810;9.208;2022-12-04T10:58:35;16.40;;;11.47;;
7887;SDS011;3989;48.810;9.208;2022-12-04T11:01:03;15.30;;;11.43;;
7887;SDS011;3989;48.810;9.208;2022-12-04T11:03:31;16.07;;;11.23;;
7887;SDS011;3989;48.810;9.208;2022-12-04T11:05:59;15.90;;;11.23;;
7887;SDS011;3989;48.810;9.208;2022-12-04T11:08:30;17.73;;;11.57;;
7887;SDS011;3989;48.810;9.208;2022-12-04T11:11:01;16.93;;;11.17;;
7887;SDS011;3989;48.810;9.208;2022-12-04T11:13:31;14.13;;;9.87;;
7887;SDS011;3989;48.810;9.208;2022-12-04T11:15:59;17.87;;;10.27;;
7887;SDS011;3989;48.810;9.208;2022-12-04T11:18:27;14.40;;;10.00;;
7887;SDS011;3989;48.810;9.208;2022-12-04T11:20:55;14.03;;;9.67;;
7887;SDS011;3989;48.810;9.208;2022-12-04T11:23:23;16.13;;;10.13;;
7887;SDS011;3989;48.810;9.208;2022-12-04T11:25:51;16.43;;;10.27;;
7887;SDS011;3989;48.810;9.208;2022-12-04T11:28:22;13.13;;;9.30;;
7887;SDS011;3989;48.810;9.208;2022-12-04T11:30:54;17.57;;;10.63;;
7887;SDS011;3989;48.810;9.208;2022-12-04T11:33:25;15.90;;;10.00;;
7887;SDS011;3989;48.810;9.208;2022-12-04T11:35:56;18.30;;;11.53;;
7887;SDS011;3989;48.810;9.208;2022-12-04T11:38:26;14.30;;;10.63;;
7887;SDS011;3989;48.810;9.208;2022-12-04T11:40:56;14.33;;;9.50;;
7887;SDS011;3989;48.810;9.208;2022-12-04T11:43:26;15.77;;;10.30;;
7887;SDS011;3989;48.810;9.208;2022-12-04T11:45:59;16.40;;;10.47;;
7887;SDS011;3989;48.810;9.208;2022-12-04T11:48:27;17.93;;;10.53;;
7887;SDS011;3989;48.810;9.208;2022-12-04T11:50:57;15.13;;;10.23;;
7887;SDS011;3989;48.810;9.208;2022-12-04T11:53:37;13.53;;;9.87;;
7887;SDS011;3989;48.810;9.208;2022-12-04T11:56:13;18.03;;;10.70;;
7887;SDS011;3989;48.810;9.208;2022-12-04T11:58:50;17.30;;;10.53;;
7887;SDS011;3989;48.810;9.208;2022-12-04T12:01:35;16.40;;;9.93;;
7887;SDS011;3989;48.810;9.208;2022-12-04T12:07:28;16.00;;;10.87;;
7887;SDS011;3989;48.810;9.208;2022-12-04T12:10:05;14.97;;;9.43;;
7887;SDS011;3989;48.810;9.208;2022-12-04T12:12:40;16.53;;;10.53;;
7887;SDS011;3989;48.810;9.208;2022-12-04T12:15:21;15.27;;;9.57;;
7887;SDS011;3989;48.810;9.208;2022-12-04T12:18:02;17.33;;;10.57;;
7887;SDS011;3989;48.810;9.208;2022-12-04T12:20:47;17.50;;;10.17;;
7887;SDS011;3989;48.810;9.208;2022-12-04T12:23:26;16.90;;;9.27;;
7887;SDS011;3989;48.810;9.208;2022-12-04T12:26:03;16.03;;;10.33;;
7887;SDS011;3989;48.810;9.208;2022-12-04T12:28:38;15.43;;;9.43;;
7887;SDS011;3989;48.810;9.208;2022-12-04T12:31:24;13.33;;;10.17;;
7887;SDS011;3989;48.810;9.208;2022-12-04T12:34:04;17.17;;;10.33;;
7887;SDS011;3989;48.810;9.208;2022-12-04T12:36:37;16.47;;;9.97;;
7887;SDS011;3989;48.810;9.208;2022-12-04T12:39:10;15.80;;;11.00;;
7887;SDS011;3989;48.810;9.208;2022-12-04T12:41:42;18.03;;;11.13;;
7887;SDS011;3989;48.810;9.208;2022-12-04T12:44:14;16.87;;;10.00;;
7887;SDS011;3989;48.810;9.208;2022-12-04T12:46:45;16.43;;;10.63;;
7887;SDS011;3989;48.810;9.208;2022-12-04T12:49:18;14.13;;;9.40;;
7887;SDS011;3989;48.810;9.208;2022-12-04T12:51:49;15.20;;;9.33;;
7887;SDS011;3989;48.810;9.208;2022-12-04T12:54:22;14.00;;;9.90;;
7887;SDS011;3989;48.810;9.208;2022-12-04T12:57:03;18.60;;;10.17;;
7887;SDS011;3989;48.810;9.208;2022-12-04T12:59:32;16.60;;;10.20;;
7887;SDS011;3989;48.810;9.208;2022-12-04T13:02:00;16.17;;;9.40;;
7887;SDS011;3989;48.810;9.208;2022-12-04T13:04:36;15.57;;;9.37;;
7887;SDS011;3989;48.810;9.208;2022-12-04T13:07:13;15.07;;;9.93;;
7887;SDS011;3989;48.810;9.208;2022-12-04T13:09:49;14.97;;;9.47;;
7887;SDS011;3989;48.810;9.208;2022-12-04T13:12:21;13.47;;;9.13;;
7887;SDS011;3989;48.810;9.208;2022-12-04T13:14:49;14.90;;;9.80;;
7887;SDS011;3989;48.810;9.208;2022-12-04T13:17:17;16.20;;;11.00;;
7887;SDS011;3989;48.810;9.208;2022-12-04T13:19:50;16.77;;;10.77;;
7887;SDS011;3989;48.810;9.208;2022-12-04T13:22:21;15.63;;;10.90;;
7887;SDS011;3989;48.810;9.208;2022-12-04T13:25:11;14.80;;;9.40;;
7887;SDS011;3989;48.810;9.208;2022-12-04T13:27:50;11.47;;;8.37;;
7887;SDS011;3989;48.810;9.208;2022-12-04T13:30:27;15.10;;;10.03;;
7887;SDS011;3989;48.810;9.208;2022-12-04T13:33:07;13.43;;;9.77;;
7887;SDS011;3989;48.810;9.208;2022-12-04T13:36:05;14.33;;;9.90;;
7887;SDS011;3989;48.810;9.208;2022-12-04T13:38:42;14.00;;;8.97;;
7887;SDS011;3989;48.810;9.208;2022-12-04T13:41:20;12.47;;;8.53;;
7887;SDS011;3989;48.810;9.208;2022-12-04T13:43:49;14.20;;;9.17;;
7887;SDS011;3989;48.810;9.208;2022-12-04T13:46:26;14.37;;;9.20;;
7887;SDS011;3989;48.810;9.208;2022-12-04T13:49:05;12.47;;;8.37;;
7887;SDS011;3989;48.810;9.208;2022-12-04T13:51:36;14.40;;;9.77;;
7887;SDS011;3989;48.810;9.208;2022-12-04T13:54:20;16.67;;;9.80;;
7887;SDS011;3989;48.810;9.208;2022-12-04T13:56:51;17.53;;;10.87;;
7887;SDS011;3989;48.810;9.208;2022-12-04T13:59:20;18.17;;;9.77;;
7887;SDS011;3989;48.810;9.208;2022-12-04T14:02:00;14.37;;;9.60;;
7887;SDS011;3989;48.810;9.208;2022-12-04T14:04:29;14.77;;;10.00;;
7887;SDS011;3989;48.810;9.208;2022-12-04T14:06:59;14.93;;;9.97;;
7887;SDS011;3989;48.810;9.208;2022-12-04T14:09:37;14.13;;;9.23;;
7887;SDS011;3989;48.810;9.208;2022-12-04T14:12:07;14.47;;;9.17;;
7887;SDS011;3989;48.810;9.208;2022-12-04T14:14:38;13.20;;;9.20;;
7887;SDS011;3989;48.810;9.208;2022-12-04T14:17:13;13.80;;;9.13;;
7887;SDS011;3989;48.810;9.208;2022-12-04T14:19:43;16.20;;;9.50;;
7887;SDS011;3989;48.810;9.208;2022-12-04T14:22:25;16.30;;;9.43;;
7887;SDS011;3989;48.810;9.208;2022-12-04T14:25:04;14.67;;;9.63;;
7887;SDS011;3989;48.810;9.208;2022-12-04T14:27:33;16.87;;;9.43;;
7887;SDS011;3989;48.810;9.208;2022-12-04T14:30:13;14.03;;;9.57;;
7887;SDS011;3989;48.810;9.208;2022-12-04T14:32:43;18.23;;;10.63;;
7887;SDS011;3989;48.810;9.208;2022-12-04T14:35:12;15.03;;;11.17;;
7887;SDS011;3989;48.810;9.208;2022-12-04T14:37:46;16.80;;;10.37;;
7887;SDS011;3989;48.810;9.208;2022-12-04T14:40:19;16.33;;;10.50;;
7887;SDS011;3989;48.810;9.208;2022-12-04T14:42:48;16.70;;;10.70;;
7887;SDS011;3989;48.810;9.208;2022-12-04T14:45:19;16.87;;;10.27;;
7887;SDS011;3989;48.810;9.208;2022-12-04T14:47:55;15.87;;;9.70;;
7887;SDS011;3989;48.810;9.208;2022-12-04T14:50:33;13.40;;;9.83;;
7887;SDS011;3989;48.810;9.208;2022-12-04T14:53:10;13.37;;;9.17;;
7887;SDS011;3989;48.810;9.208;2022-12-04T14:55:49;15.97;;;9.97;;
7887;SDS011;3989;48.810;9.208;2022-12-04T14:58:21;16.97;;;9.70;;
7887;SDS011;3989;48.810;9.208;2022-12-04T15:00:55;15.37;;;10.37;;
7887;SDS011;3989;48.810;9.208;2022-12-04T15:03:23;18.83;;;10.70;;
7887;SDS011;3989;48.810;9.208;2022-12-04T15:05:51;13.80;;;9.53;;
7887;SDS011;3989;48.810;9.208;2022-12-04T15:08:28;18.70;;;11.00;;
7887;SDS011;3989;48.810;9.208;2022-12-04T15:10:55;18.53;;;10.17;;
7887;SDS011;3989;48.810;9.208;2022-12-04T15:13:39;17.60;;;10.17;;
7887;SDS011;3989;48.810;9.208;2022-12-04T15:16:08;17.80;;;11.47;;
7887;SDS011;3989;48.810;9.208;2022-12-04T15:18:40;15.97;;;10.40;;
7887;SDS011;3989;48.810;9.208;2022-12-04T15:21:07;13.93;;;9.90;;
7887;SDS011;3989;48.810;9.208;2022-12-04T15:23:38;16.57;;;10.37;;